createdAt,value
2023-05-22T00:00:30.139Z,98.24
2023-05-22T00:01:09.105Z,98.54
2023-05-22T00:02:30.161Z,97.19
2023-05-22T00:03:30.116Z,97.67
2023-05-22T00:04:30.172Z,98.34
2023-05-22T00:05:09.033Z,98.63
2023-05-22T00:06:29.954Z,98.29
2023-05-22T00:07:29.904Z,98.19
2023-05-22T00:08:30.061Z,98.19
2023-05-22T00:09:08.859Z,98.39
2023-05-22T00:10:29.810Z,98.44
2023-05-22T00:11:29.805Z,98.72
2023-05-22T00:12:29.777Z,97.57
2023-05-22T00:13:08.758Z,98.58
2023-05-22T00:14:29.712Z,97.52
2023-05-22T00:15:29.673Z,98.58
2023-05-22T00:16:29.717Z,97.81
2023-05-22T00:17:08.630Z,98.49
2023-05-22T00:18:29.593Z,97.81
2023-05-22T00:19:29.617Z,98.58
2023-05-22T00:20:29.542Z,97.71
2023-05-22T00:21:08.503Z,97.52
2023-05-22T00:22:29.476Z,97.24
2023-05-22T00:23:29.432Z,97.71
2023-05-22T00:24:29.401Z,97.42
2023-05-22T00:25:08.377Z,97.81
2023-05-22T00:26:29.343Z,97.24
2023-05-22T00:27:29.311Z,97.42
2023-05-22T00:28:29.285Z,97.42
2023-05-22T00:29:08.246Z,97.81
2023-05-22T00:30:29.233Z,97.33
2023-05-22T00:31:29.202Z,97.71
2023-05-22T00:32:29.197Z,97.52
2023-05-22T00:33:08.240Z,97.33
2023-05-22T00:34:29.132Z,97.14
2023-05-22T00:35:29.086Z,97.42
2023-05-22T00:36:29.076Z,97.14
2023-05-22T00:37:08.038Z,97.42
2023-05-22T00:38:28.999Z,97.62
2023-05-22T00:39:28.952Z,96.94
2023-05-22T00:40:28.950Z,97.42
2023-05-22T00:41:07.898Z,97.14
2023-05-22T00:42:28.884Z,97.24
2023-05-22T00:43:28.828Z,97.24
2023-05-22T00:44:28.819Z,97.33
2023-05-22T00:45:07.782Z,97.28
2023-05-22T00:46:28.766Z,97.62
2023-05-22T00:47:28.747Z,97.33
2023-05-22T00:48:28.699Z,97.14
2023-05-22T00:49:07.657Z,97.52
2023-05-22T00:50:28.649Z,97.24
2023-05-22T00:51:28.613Z,97.42
2023-05-22T00:52:28.580Z,96.75
2023-05-22T00:53:07.554Z,96.99
2023-05-22T00:54:28.524Z,97.42
2023-05-22T00:55:28.478Z,96.99
2023-05-22T00:56:28.476Z,96.80
2023-05-22T00:57:07.438Z,97.28
2023-05-22T00:58:28.409Z,97.62
2023-05-22T00:59:28.398Z,96.99
2023-05-22T01:00:28.341Z,96.75
2023-05-22T01:01:07.305Z,97.42
2023-05-22T01:02:28.276Z,97.24
2023-05-22T01:03:28.341Z,97.24
2023-05-22T01:04:28.226Z,97.33
2023-05-22T01:05:07.183Z,97.42
2023-05-22T01:06:28.161Z,97.42
2023-05-22T01:07:28.122Z,97.04
2023-05-22T01:08:28.098Z,97.52
2023-05-22T01:09:07.063Z,97.42
2023-05-22T01:10:28.048Z,97.33
2023-05-22T01:11:28.019Z,97.42
2023-05-22T01:12:27.978Z,97.14
2023-05-22T01:13:06.975Z,97.33
2023-05-22T01:14:27.922Z,97.42
2023-05-22T01:15:27.878Z,97.42
2023-05-22T01:16:27.911Z,97.33
2023-05-22T01:17:06.819Z,97.33
2023-05-22T01:18:27.810Z,97.19
2023-05-22T01:19:27.901Z,97.24
2023-05-22T01:20:27.754Z,97.33
2023-05-22T01:21:06.724Z,97.19
2023-05-22T01:22:27.696Z,97.42
2023-05-22T01:23:27.654Z,97.38
2023-05-22T01:24:27.621Z,97.52
2023-05-22T01:25:06.589Z,96.99
2023-05-22T01:26:27.570Z,97.38
2023-05-22T01:27:27.516Z,97.28
2023-05-22T01:28:27.505Z,97.38
2023-05-22T01:29:06.470Z,97.28
2023-05-22T01:30:27.444Z,97.47
2023-05-22T01:31:27.420Z,97.38
2023-05-22T01:32:27.438Z,97.19
2023-05-22T01:33:06.393Z,96.99
2023-05-22T01:34:27.344Z,97.19
2023-05-22T01:35:27.285Z,97.38
2023-05-22T01:36:27.262Z,97.57
2023-05-22T01:37:06.216Z,97.28
2023-05-22T01:38:27.210Z,97.38
2023-05-22T01:39:27.152Z,97.28
2023-05-22T01:40:27.158Z,96.99
2023-05-22T01:41:06.125Z,96.94
2023-05-22T01:42:27.078Z,97.47
2023-05-22T01:43:27.054Z,96.90
2023-05-22T01:44:27.024Z,97.14
2023-05-22T01:45:05.987Z,96.85
2023-05-22T01:46:26.994Z,97.24
2023-05-22T01:47:26.949Z,97.14
2023-05-22T01:48:26.918Z,97.24
2023-05-22T01:49:05.854Z,97.33
2023-05-22T01:50:26.852Z,97.33
2023-05-22T01:51:26.819Z,97.33
2023-05-22T01:52:26.795Z,97.33
2023-05-22T01:53:05.766Z,97.04
2023-05-22T01:54:26.695Z,97.24
2023-05-22T01:55:26.679Z,97.24
2023-05-22T01:56:26.670Z,97.42
2023-05-22T01:57:05.623Z,97.14
2023-05-22T01:58:26.596Z,97.33
2023-05-22T01:59:26.574Z,97.33
2023-05-22T02:00:26.612Z,97.33
2023-05-22T02:01:05.546Z,97.24
2023-05-22T02:02:26.558Z,97.14
2023-05-22T02:03:26.816Z,97.14
2023-05-22T02:04:26.411Z,96.89
2023-05-22T02:05:05.376Z,97.42
2023-05-22T02:06:26.385Z,96.51
2023-05-22T02:07:26.320Z,96.80
2023-05-22T02:08:26.291Z,97.09
2023-05-22T02:09:05.276Z,96.61
2023-05-22T02:10:26.224Z,96.80
2023-05-22T02:11:26.205Z,96.80
2023-05-22T02:12:26.164Z,96.70
2023-05-22T02:13:05.122Z,96.70
2023-05-22T02:14:26.134Z,96.51
2023-05-22T02:15:26.126Z,96.22
2023-05-22T02:16:26.109Z,96.08
2023-05-22T02:17:05.004Z,96.13
2023-05-22T02:18:25.976Z,96.47
2023-05-22T02:19:25.951Z,96.37
2023-05-22T02:20:25.925Z,96.27
2023-05-22T02:21:04.895Z,96.27
2023-05-22T02:22:25.849Z,96.18
2023-05-22T02:23:25.816Z,96.37
2023-05-22T02:24:25.794Z,96.27
2023-05-22T02:25:04.760Z,96.27
2023-05-22T02:26:25.720Z,96.08
2023-05-22T02:27:25.692Z,96.18
2023-05-22T02:28:25.684Z,95.50
2023-05-22T02:29:04.654Z,96.08
2023-05-22T02:30:25.598Z,95.79
2023-05-22T02:31:25.617Z,96.08
2023-05-22T02:32:25.586Z,96.08
2023-05-22T02:33:04.571Z,96.08
2023-05-22T02:34:25.504Z,96.08
2023-05-22T02:35:25.478Z,95.89
2023-05-22T02:36:25.439Z,96.08
2023-05-22T02:37:04.396Z,96.18
2023-05-22T02:38:25.378Z,95.98
2023-05-22T02:39:25.332Z,96.27
2023-05-22T02:40:25.316Z,96.08
2023-05-22T02:41:04.277Z,96.37
2023-05-22T02:42:25.249Z,95.89
2023-05-22T02:43:25.195Z,96.27
2023-05-22T02:44:25.169Z,95.70
2023-05-22T02:45:04.155Z,95.84
2023-05-22T02:46:25.162Z,95.07
2023-05-22T02:47:25.090Z,95.26
2023-05-22T02:48:25.070Z,95.17
2023-05-22T02:49:04.039Z,94.69
2023-05-22T02:50:24.995Z,94.98
2023-05-22T02:51:24.966Z,94.88
2023-05-22T02:52:25.016Z,94.69
2023-05-22T02:53:03.890Z,94.88
2023-05-22T02:54:24.858Z,93.73
2023-05-22T02:55:24.830Z,93.35
2023-05-22T02:56:24.822Z,94.31
2023-05-22T02:57:03.763Z,93.30
2023-05-22T02:58:24.765Z,93.01
2023-05-22T02:59:24.699Z,93.11
2023-05-22T03:00:24.703Z,93.01
2023-05-22T03:01:03.690Z,92.72
2023-05-22T03:02:24.668Z,93.15
2023-05-22T03:03:24.788Z,93.25
2023-05-22T03:04:24.552Z,93.63
2023-05-22T03:05:03.524Z,93.54
2023-05-22T03:06:24.502Z,93.54
2023-05-22T03:07:24.493Z,93.63
2023-05-22T03:08:24.412Z,94.02
2023-05-22T03:09:03.389Z,93.82
2023-05-22T03:10:24.406Z,93.54
2023-05-22T03:11:24.342Z,94.59
2023-05-22T03:12:24.301Z,94.40
2023-05-22T03:13:03.279Z,94.49
2023-05-22T03:14:24.255Z,94.49
2023-05-22T03:15:24.200Z,94.49
2023-05-22T03:16:24.206Z,94.49
2023-05-22T03:17:03.138Z,94.21
2023-05-22T03:18:25.963Z,94.21
2023-05-22T03:19:24.336Z,94.49
2023-05-22T03:20:24.068Z,94.31
2023-05-22T03:21:03.051Z,94.49
2023-05-22T03:22:23.997Z,94.69
2023-05-22T03:23:23.975Z,94.21
2023-05-22T03:24:23.936Z,94.93
2023-05-22T03:25:02.894Z,94.59
2023-05-22T03:26:23.850Z,94.88
2023-05-22T03:27:23.835Z,94.88
2023-05-22T03:28:23.828Z,94.88
2023-05-22T03:29:02.853Z,94.21
2023-05-22T03:30:23.747Z,94.88
2023-05-22T03:31:23.710Z,94.40
2023-05-22T03:32:23.714Z,94.12
2023-05-22T03:33:02.667Z,94.40
2023-05-22T03:34:23.608Z,94.21
2023-05-22T03:35:23.601Z,94.21
2023-05-22T03:36:23.568Z,94.31
2023-05-22T03:37:02.524Z,94.02
2023-05-22T03:38:23.500Z,94.12
2023-05-22T03:39:23.454Z,93.73
2023-05-22T03:40:23.448Z,94.02
2023-05-22T03:41:02.389Z,93.73
2023-05-22T03:42:23.365Z,94.59
2023-05-22T03:43:23.348Z,94.21
2023-05-22T03:44:23.324Z,94.59
2023-05-22T03:45:02.272Z,94.40
2023-05-22T03:46:23.321Z,94.02
2023-05-22T03:47:23.226Z,93.73
2023-05-22T03:48:23.210Z,93.73
2023-05-22T03:49:02.150Z,93.73
2023-05-22T03:50:23.115Z,93.73
2023-05-22T03:51:23.080Z,94.12
2023-05-22T03:52:23.062Z,94.59
2023-05-22T03:53:02.037Z,94.02
2023-05-22T03:54:23.016Z,93.92
2023-05-22T03:55:22.969Z,93.92
2023-05-22T03:56:22.950Z,93.82
2023-05-22T03:57:01.922Z,93.73
2023-05-22T03:58:22.923Z,93.73
2023-05-22T03:59:22.827Z,94.12
2023-05-22T04:00:22.868Z,93.73
2023-05-22T04:01:01.772Z,93.82
2023-05-22T04:02:22.814Z,93.35
2023-05-22T04:03:22.948Z,93.54
2023-05-22T04:04:22.704Z,93.82
2023-05-22T04:05:01.688Z,93.25
2023-05-22T04:06:22.621Z,93.15
2023-05-22T04:07:22.589Z,92.72
2023-05-22T04:08:22.571Z,92.44
2023-05-22T04:09:01.532Z,92.39
2023-05-22T04:10:22.548Z,92.77
2023-05-22T04:11:22.467Z,92.58
2023-05-22T04:12:22.425Z,92.68
2023-05-22T04:13:01.402Z,92.24
2023-05-22T04:14:22.373Z,92.68
2023-05-22T04:15:22.333Z,91.19
2023-05-22T04:16:22.434Z,92.15
2023-05-22T04:17:01.303Z,92.15
2023-05-22T04:18:22.254Z,91.57
2023-05-22T04:19:22.492Z,91.48
2023-05-22T04:20:22.178Z,91.86
2023-05-22T04:21:01.150Z,91.38
2023-05-22T04:22:22.135Z,91.48
2023-05-22T04:23:22.082Z,90.61
2023-05-22T04:24:22.076Z,91.77
2023-05-22T04:25:01.033Z,91.57
2023-05-22T04:26:22.001Z,91.09
2023-05-22T04:27:21.959Z,91.19
2023-05-22T04:28:21.925Z,91.19
2023-05-22T04:29:00.893Z,90.90
2023-05-22T04:30:21.866Z,91.19
2023-05-22T04:31:21.855Z,90.23
2023-05-22T04:32:21.849Z,90.42
2023-05-22T04:33:00.835Z,90.33
2023-05-22T04:34:21.771Z,90.42
2023-05-22T04:35:21.695Z,90.33
2023-05-22T04:36:21.690Z,89.65
2023-05-22T04:37:00.645Z,89.27
2023-05-22T04:38:21.623Z,89.18
2023-05-22T04:39:21.584Z,89.37
2023-05-22T04:40:21.555Z,89.47
2023-05-22T04:41:00.522Z,89.27
2023-05-22T04:42:21.484Z,89.65
2023-05-22T04:43:21.455Z,89.75
2023-05-22T04:44:21.443Z,89.75
2023-05-22T04:45:00.392Z,89.47
2023-05-22T04:46:21.520Z,89.75
2023-05-22T04:47:21.380Z,89.94
2023-05-22T04:48:21.323Z,89.56
2023-05-22T04:49:00.263Z,89.94
2023-05-22T04:50:21.249Z,89.47
2023-05-22T04:51:21.197Z,89.56
2023-05-22T04:52:21.192Z,88.89
2023-05-22T04:53:00.147Z,88.70
2023-05-22T04:54:21.123Z,88.60
2023-05-22T04:55:21.076Z,88.51
2023-05-22T04:56:31.810Z,87.84
2023-05-22T04:57:00.010Z,88.31
2023-05-22T04:58:21.001Z,87.93
2023-05-22T04:59:20.957Z,88.31
2023-05-22T05:00:20.929Z,88.70
2023-05-22T05:00:59.944Z,88.12
2023-05-22T05:02:20.887Z,88.41
2023-05-22T05:03:20.895Z,87.64
2023-05-22T05:04:20.787Z,87.74
2023-05-22T05:04:59.757Z,87.55
2023-05-22T05:06:20.725Z,87.84
2023-05-22T05:07:20.719Z,88.02
2023-05-22T05:08:20.672Z,88.31
2023-05-22T05:08:59.652Z,87.93
2023-05-22T05:10:20.617Z,88.22
2023-05-22T05:11:20.585Z,88.41
2023-05-22T05:12:20.557Z,88.79
2023-05-22T05:12:59.514Z,88.41
2023-05-22T05:14:20.472Z,88.98
2023-05-22T05:15:20.491Z,89.27
2023-05-22T05:16:20.479Z,88.79
2023-05-22T05:16:59.466Z,88.41
2023-05-22T05:18:20.364Z,88.31
2023-05-22T05:19:20.376Z,88.60
2023-05-22T05:20:20.305Z,88.41
2023-05-22T05:20:59.253Z,88.51
2023-05-22T05:22:20.256Z,88.31
2023-05-22T05:23:20.186Z,88.41
2023-05-22T05:24:20.164Z,87.35
2023-05-22T05:24:59.126Z,88.02
2023-05-22T05:26:20.113Z,87.45
2023-05-22T05:27:20.055Z,87.64
2023-05-22T05:28:20.044Z,87.35
2023-05-22T05:28:59.006Z,87.64
2023-05-22T05:30:20.630Z,87.16
2023-05-22T05:31:19.937Z,87.78
2023-05-22T05:32:20.116Z,87.45
2023-05-22T05:32:58.911Z,86.88
2023-05-22T05:34:19.847Z,86.78
2023-05-22T05:35:19.811Z,86.97
2023-05-22T05:36:19.778Z,86.88
2023-05-22T05:36:58.781Z,86.88
2023-05-22T05:38:19.732Z,86.97
2023-05-22T05:39:19.683Z,86.78
2023-05-22T05:40:19.681Z,86.88
2023-05-22T05:40:58.636Z,86.78
2023-05-22T05:42:19.626Z,87.59
2023-05-22T05:43:19.559Z,86.58
2023-05-22T05:44:19.533Z,87.11
2023-05-22T05:44:58.495Z,86.78
2023-05-22T05:46:19.558Z,86.72
2023-05-22T05:47:19.476Z,87.49
2023-05-22T05:48:19.395Z,87.40
2023-05-22T05:48:58.374Z,87.64
2023-05-22T05:50:19.342Z,87.59
2023-05-22T05:51:19.310Z,87.68
2023-05-22T05:52:19.303Z,87.49
2023-05-22T05:52:58.261Z,87.68
2023-05-22T05:54:19.233Z,87.59
2023-05-22T05:55:19.205Z,87.40
2023-05-22T05:56:19.168Z,87.59
2023-05-22T05:56:58.152Z,87.30
2023-05-22T05:58:19.124Z,87.59
2023-05-22T05:59:19.097Z,87.49
2023-05-22T06:00:19.030Z,86.68
2023-05-22T06:00:58.031Z,86.72
2023-05-22T06:02:19.022Z,87.01
2023-05-22T06:03:19.051Z,87.59
2023-05-22T06:04:18.921Z,86.82
2023-05-22T06:04:57.900Z,87.11
2023-05-22T06:06:18.840Z,87.78
2023-05-22T06:07:18.817Z,87.49
2023-05-22T06:08:18.799Z,87.49
2023-05-22T06:08:57.751Z,87.01
2023-05-22T06:10:18.740Z,86.54
2023-05-22T06:11:18.684Z,86.25
2023-05-22T06:12:18.676Z,86.72
2023-05-22T06:12:57.640Z,86.54
2023-05-22T06:14:18.619Z,87.30
2023-05-22T06:15:18.577Z,87.49
2023-05-22T06:16:18.599Z,87.40
2023-05-22T06:16:57.566Z,87.30
2023-05-22T06:18:18.503Z,87.30
2023-05-22T06:19:18.469Z,87.49
2023-05-22T06:20:18.412Z,87.59
2023-05-22T06:20:57.384Z,87.59
2023-05-22T06:22:18.352Z,87.49
2023-05-22T06:23:18.316Z,87.49
2023-05-22T06:24:18.326Z,87.11
2023-05-22T06:24:57.254Z,86.92
2023-05-22T06:26:18.233Z,87.40
2023-05-22T06:27:18.200Z,86.82
2023-05-22T06:28:18.174Z,86.92
2023-05-22T06:28:57.173Z,86.54
2023-05-22T06:30:28.151Z,87.21
2023-05-22T06:31:18.075Z,87.30
2023-05-22T06:32:18.150Z,87.49
2023-05-22T06:32:57.107Z,87.98
2023-05-22T06:34:18.013Z,88.45
2023-05-22T06:35:17.950Z,88.45
2023-05-22T06:36:17.934Z,88.35
2023-05-22T06:36:56.908Z,88.55
2023-05-22T06:38:17.853Z,89.03
2023-05-22T06:39:17.839Z,89.22
2023-05-22T06:40:17.782Z,88.93
2023-05-22T06:40:56.775Z,88.35
2023-05-22T06:42:17.721Z,88.55
2023-05-22T06:43:17.706Z,88.65
2023-05-22T06:44:17.674Z,88.55
2023-05-22T06:44:56.639Z,88.45
2023-05-22T06:46:17.650Z,88.93
2023-05-22T06:47:17.583Z,88.45
2023-05-22T06:48:17.540Z,88.65
2023-05-22T06:48:56.527Z,88.65
2023-05-22T06:50:17.468Z,88.65
2023-05-22T06:51:17.459Z,89.61
2023-05-22T06:52:17.431Z,89.55
2023-05-22T06:52:56.394Z,89.46
2023-05-22T06:54:17.363Z,88.69
2023-05-22T06:55:17.349Z,88.98
2023-05-22T06:56:17.291Z,88.88
2023-05-22T06:56:56.276Z,89.65
2023-05-22T06:58:17.222Z,89.65
2023-05-22T06:59:17.239Z,89.55
2023-05-22T07:00:17.888Z,90.61
2023-05-22T07:00:56.172Z,89.65
2023-05-22T07:02:17.105Z,90.42
2023-05-22T07:03:17.126Z,90.32
2023-05-22T07:04:17.049Z,90.32
2023-05-22T07:04:56.064Z,90.42
2023-05-22T07:06:17.137Z,90.42
2023-05-22T07:07:16.963Z,91.28
2023-05-22T07:08:16.922Z,90.99
2023-05-22T07:08:55.899Z,90.42
2023-05-22T07:10:16.859Z,91.09
2023-05-22T07:11:16.846Z,91.52
2023-05-22T07:12:16.809Z,92.24
2023-05-22T07:12:55.801Z,91.66
2023-05-22T07:14:16.736Z,91.61
2023-05-22T07:15:16.717Z,91.61
2023-05-22T07:16:16.705Z,91.42
2023-05-22T07:16:55.793Z,91.33
2023-05-22T07:18:16.628Z,91.71
2023-05-22T07:19:16.728Z,91.42
2023-05-22T07:20:16.550Z,91.33
2023-05-22T07:20:55.522Z,91.71
2023-05-22T07:22:16.516Z,91.38
2023-05-22T07:23:16.465Z,91.71
2023-05-22T07:24:16.423Z,91.71
2023-05-22T07:24:55.390Z,91.81
2023-05-22T07:26:16.354Z,91.61
2023-05-22T07:27:16.339Z,92.10
2023-05-22T07:28:16.300Z,92.10
2023-05-22T07:28:55.289Z,92.48
2023-05-22T07:30:16.233Z,92.67
2023-05-22T07:31:16.233Z,93.34
2023-05-22T07:32:16.202Z,92.00
2023-05-22T07:32:55.221Z,92.00
2023-05-22T07:34:16.118Z,92.77
2023-05-22T07:35:16.104Z,92.38
2023-05-22T07:36:16.058Z,92.67
2023-05-22T07:36:55.048Z,92.77
2023-05-22T07:38:15.998Z,92.86
2023-05-22T07:39:16.018Z,92.29
2023-05-22T07:40:15.916Z,93.05
2023-05-22T07:40:54.929Z,93.44
2023-05-22T07:42:15.877Z,92.86
2023-05-22T07:43:15.870Z,92.86
2023-05-22T07:44:15.820Z,93.44
2023-05-22T07:44:54.808Z,93.05
2023-05-22T07:46:15.797Z,92.77
2023-05-22T07:47:15.724Z,92.67
2023-05-22T07:48:15.730Z,92.57
2023-05-22T07:48:54.660Z,93.05
2023-05-22T07:50:15.635Z,92.48
2023-05-22T07:51:15.580Z,92.52
2023-05-22T07:52:15.573Z,93.19
2023-05-22T07:52:54.553Z,93.29
2023-05-22T07:54:15.634Z,93.68
2023-05-22T07:55:15.466Z,93.87
2023-05-22T07:56:15.421Z,93.68
2023-05-22T07:56:54.413Z,93.87
2023-05-22T07:58:15.394Z,93.87
2023-05-22T07:59:15.350Z,93.77
2023-05-22T08:00:15.321Z,94.49
2023-05-22T08:00:54.347Z,93.73
2023-05-22T08:02:15.275Z,93.91
2023-05-22T08:03:15.336Z,94.68
2023-05-22T08:04:15.292Z,94.21
2023-05-22T08:04:54.181Z,93.73
2023-05-22T08:06:15.135Z,94.11
2023-05-22T08:07:15.111Z,94.01
2023-05-22T08:08:15.059Z,94.21
2023-05-22T08:08:54.038Z,93.91
2023-05-22T08:10:15.018Z,94.06
2023-05-22T08:11:14.988Z,94.40
2023-05-22T08:12:14.968Z,94.40
2023-05-22T08:12:53.918Z,94.54
2023-05-22T08:14:14.877Z,93.91
2023-05-22T08:15:14.879Z,94.01
2023-05-22T08:16:14.848Z,93.91
2023-05-22T08:16:53.826Z,94.88
2023-05-22T08:18:14.799Z,94.59
2023-05-22T08:19:14.772Z,94.59
2023-05-22T08:20:14.787Z,94.01
2023-05-22T08:20:54.967Z,94.01
2023-05-22T08:22:14.636Z,94.49
2023-05-22T08:23:14.629Z,94.88
2023-05-22T08:24:14.573Z,94.78
2023-05-22T08:24:53.568Z,94.30
2023-05-22T08:26:14.512Z,94.30
2023-05-22T08:27:14.528Z,95.07
2023-05-22T08:28:14.678Z,94.30
2023-05-22T08:28:53.451Z,94.88
2023-05-22T08:30:14.403Z,94.98
2023-05-22T08:31:14.408Z,95.36
2023-05-22T08:32:14.337Z,95.55
2023-05-22T08:32:53.404Z,95.07
2023-05-22T08:34:14.287Z,94.68
2023-05-22T08:35:14.280Z,94.59
2023-05-22T08:36:14.227Z,95.12
2023-05-22T08:36:53.202Z,94.64
2023-05-22T08:38:14.245Z,95.50
2023-05-22T08:39:14.150Z,95.31
2023-05-22T08:40:14.167Z,96.08
2023-05-22T08:40:53.134Z,95.70
2023-05-22T08:42:14.042Z,95.12
2023-05-22T08:43:14.021Z,95.60
2023-05-22T08:44:13.995Z,95.79
2023-05-22T08:44:52.966Z,95.89
2023-05-22T08:46:13.944Z,95.98
2023-05-22T08:47:13.975Z,95.70
2023-05-22T08:48:13.890Z,95.12
2023-05-22T08:48:52.825Z,96.17
2023-05-22T08:50:13.809Z,95.89
2023-05-22T08:51:13.767Z,95.70
2023-05-22T08:52:13.775Z,96.27
2023-05-22T08:52:52.743Z,95.40
2023-05-22T08:54:13.724Z,96.08
2023-05-22T08:55:13.712Z,96.12
2023-05-22T08:56:13.604Z,95.98
2023-05-22T08:56:56.741Z,95.94
2023-05-22T08:58:13.553Z,96.22
2023-05-22T08:59:13.547Z,95.98
2023-05-22T09:00:13.521Z,95.70
2023-05-22T09:00:52.507Z,95.79
2023-05-22T09:02:13.445Z,96.08
2023-05-22T09:03:13.545Z,96.37
2023-05-22T09:04:13.418Z,96.22
2023-05-22T09:04:52.351Z,96.08
2023-05-22T09:06:13.321Z,96.17
2023-05-22T09:07:13.311Z,96.27
2023-05-22T09:08:20.479Z,96.47
2023-05-22T09:08:52.279Z,96.56
2023-05-22T09:10:13.240Z,96.32
2023-05-22T09:11:13.199Z,95.89
2023-05-22T09:12:13.142Z,95.89
2023-05-22T09:12:52.130Z,96.56
2023-05-22T09:14:13.108Z,96.37
2023-05-22T09:15:13.056Z,96.08
2023-05-22T09:16:13.096Z,96.17
2023-05-22T09:16:52.044Z,96.17
2023-05-22T09:18:13.031Z,96.56
2023-05-22T09:19:12.996Z,95.89
2023-05-22T09:20:12.912Z,96.56
2023-05-22T09:20:51.895Z,96.47
2023-05-22T09:22:12.846Z,96.56
2023-05-22T09:23:12.846Z,96.27
2023-05-22T09:24:12.790Z,96.08
2023-05-22T09:24:51.786Z,96.32
2023-05-22T09:26:12.738Z,96.12
2023-05-22T09:27:12.701Z,96.37
2023-05-22T09:28:12.682Z,96.70
2023-05-22T09:28:51.655Z,96.61
2023-05-22T09:30:12.623Z,96.56
2023-05-22T09:31:12.631Z,96.27
2023-05-22T09:32:12.572Z,96.27
2023-05-22T09:32:51.536Z,96.66
2023-05-22T09:34:12.524Z,96.27
2023-05-22T09:35:12.483Z,96.27
2023-05-22T09:36:12.421Z,96.08
2023-05-22T09:36:51.429Z,96.56
2023-05-22T09:38:12.485Z,96.56
2023-05-22T09:39:12.385Z,96.37
2023-05-22T09:40:12.324Z,96.27
2023-05-22T09:40:51.287Z,95.98
2023-05-22T09:42:12.272Z,96.47
2023-05-22T09:43:12.244Z,96.85
2023-05-22T09:44:12.216Z,96.37
2023-05-22T09:44:51.209Z,96.17
2023-05-22T09:46:12.184Z,96.27
2023-05-22T09:47:12.165Z,96.56
2023-05-22T09:48:12.081Z,96.56
2023-05-22T09:48:51.059Z,96.66
2023-05-22T09:50:12.028Z,96.56
2023-05-22T09:51:12.033Z,96.56
2023-05-22T09:52:11.971Z,96.37
2023-05-22T09:52:50.952Z,96.56
2023-05-22T09:54:11.942Z,96.27
2023-05-22T09:55:12.039Z,96.47
2023-05-22T09:56:11.838Z,96.47
2023-05-22T09:56:50.844Z,96.66
2023-05-22T09:58:11.800Z,96.75
2023-05-22T09:59:11.770Z,96.56
2023-05-22T10:00:11.723Z,97.04
2023-05-22T10:00:50.697Z,96.61
2023-05-22T10:02:11.751Z,96.08
2023-05-22T10:03:11.652Z,96.56
2023-05-22T10:04:11.681Z,96.47
2023-05-22T10:04:50.706Z,97.04
2023-05-22T10:06:11.554Z,96.47
2023-05-22T10:07:11.590Z,96.42
2023-05-22T10:08:11.475Z,96.32
2023-05-22T10:08:50.457Z,96.66
2023-05-22T10:10:11.432Z,96.51
2023-05-22T10:11:11.402Z,96.56
2023-05-22T10:12:11.379Z,97.28
2023-05-22T10:12:50.342Z,96.32
2023-05-22T10:14:11.311Z,96.42
2023-05-22T10:15:11.281Z,96.37
2023-05-22T10:16:11.275Z,96.66
2023-05-22T10:16:50.216Z,96.51
2023-05-22T10:18:11.221Z,96.70
2023-05-22T10:19:11.212Z,96.32
2023-05-22T10:20:11.181Z,96.70
2023-05-22T10:20:50.108Z,96.51
2023-05-22T10:22:11.099Z,96.61
2023-05-22T10:23:11.094Z,96.80
2023-05-22T10:24:11.023Z,96.42
2023-05-22T10:24:49.969Z,96.61
2023-05-22T10:26:10.967Z,96.70
2023-05-22T10:27:10.931Z,96.75
2023-05-22T10:28:10.902Z,96.61
2023-05-22T10:28:49.880Z,96.61
2023-05-22T10:30:10.833Z,96.70
2023-05-22T10:31:10.854Z,96.51
2023-05-22T10:32:10.802Z,96.42
2023-05-22T10:32:49.810Z,96.61
2023-05-22T10:34:10.833Z,96.32
2023-05-22T10:35:10.696Z,96.22
2023-05-22T10:36:10.656Z,97.28
2023-05-22T10:36:49.662Z,97.28
2023-05-22T10:38:10.581Z,96.89
2023-05-22T10:39:10.571Z,96.61
2023-05-22T10:40:10.559Z,96.70
2023-05-22T10:40:49.533Z,96.94
2023-05-22T10:42:10.500Z,96.08
2023-05-22T10:43:10.449Z,96.08
2023-05-22T10:44:10.439Z,96.22
2023-05-22T10:44:49.402Z,96.61
2023-05-22T10:46:10.439Z,96.70
2023-05-22T10:47:10.349Z,96.51
2023-05-22T10:48:10.430Z,97.19
2023-05-22T10:48:49.290Z,96.89
2023-05-22T10:50:10.258Z,96.51
2023-05-22T10:51:10.223Z,96.70
2023-05-22T10:52:10.206Z,96.80
2023-05-22T10:52:49.166Z,96.42
2023-05-22T10:54:10.144Z,96.70
2023-05-22T10:55:10.123Z,96.56
2023-05-22T10:56:10.061Z,96.75
2023-05-22T10:56:49.090Z,96.32
2023-05-22T10:58:10.012Z,96.66
2023-05-22T10:59:09.989Z,97.14
2023-05-22T11:00:10.011Z,96.85
2023-05-22T11:00:48.936Z,96.08
2023-05-22T11:02:11.549Z,96.61
2023-05-22T11:03:18.027Z,96.85
2023-05-22T11:04:09.827Z,96.37
2023-05-22T11:04:48.860Z,96.80
2023-05-22T11:06:09.806Z,96.27
2023-05-22T11:07:09.753Z,96.42
2023-05-22T11:08:09.736Z,96.32
2023-05-22T11:08:48.713Z,96.32
2023-05-22T11:10:09.676Z,96.61
2023-05-22T11:11:09.622Z,96.51
2023-05-22T11:12:09.599Z,96.61
2023-05-22T11:12:48.569Z,95.94
2023-05-22T11:14:09.543Z,96.51
2023-05-22T11:15:09.527Z,96.61
2023-05-22T11:16:09.487Z,96.42
2023-05-22T11:16:48.502Z,97.28
2023-05-22T11:18:09.505Z,96.32
2023-05-22T11:19:21.883Z,96.46
2023-05-22T11:20:09.532Z,95.89
2023-05-22T11:20:48.377Z,96.42
2023-05-22T11:22:09.305Z,96.42
2023-05-22T11:23:09.331Z,96.42
2023-05-22T11:24:09.274Z,96.75
2023-05-22T11:24:48.214Z,96.66
2023-05-22T11:26:09.211Z,95.69
2023-05-22T11:27:09.191Z,96.27
2023-05-22T11:28:09.165Z,95.94
2023-05-22T11:28:48.111Z,96.03
2023-05-22T11:30:09.088Z,96.22
2023-05-22T11:31:09.093Z,96.27
2023-05-22T11:32:09.064Z,96.75
2023-05-22T11:32:48.080Z,96.37
2023-05-22T11:34:08.997Z,96.17
2023-05-22T11:35:08.962Z,95.98
2023-05-22T11:36:08.913Z,96.22
2023-05-22T11:36:47.924Z,95.79
2023-05-22T11:38:08.927Z,95.64
2023-05-22T11:39:08.819Z,96.32
2023-05-22T11:40:08.820Z,95.36
2023-05-22T11:40:47.807Z,95.59
2023-05-22T11:42:08.772Z,95.59
2023-05-22T11:43:08.726Z,95.50
2023-05-22T11:44:08.677Z,95.59
2023-05-22T11:44:47.670Z,95.36
2023-05-22T11:46:08.669Z,96.12
2023-05-22T11:47:08.616Z,95.26
2023-05-22T11:48:08.640Z,95.54
2023-05-22T11:48:47.546Z,94.96
2023-05-22T11:50:08.510Z,95.59
2023-05-22T11:51:08.475Z,95.50
2023-05-22T11:52:08.491Z,95.21
2023-05-22T11:52:47.435Z,95.21
2023-05-22T11:54:08.427Z,94.82
2023-05-22T11:55:08.380Z,94.63
2023-05-22T11:56:08.397Z,95.16
2023-05-22T11:56:47.330Z,94.20
2023-05-22T11:58:08.266Z,94.10
2023-05-22T11:59:08.241Z,94.29
2023-05-22T12:00:08.572Z,93.71
2023-05-22T12:00:47.284Z,94.43
2023-05-22T12:02:08.189Z,94.63
2023-05-22T12:03:08.268Z,94.77
2023-05-22T12:04:08.221Z,93.71
2023-05-22T12:04:47.106Z,94.20
2023-05-22T12:06:08.167Z,94.34
2023-05-22T12:07:08.059Z,93.90
2023-05-22T12:08:08.019Z,94.29
2023-05-22T12:08:46.980Z,94.04
2023-05-22T12:10:07.965Z,92.98
2023-05-22T12:11:07.951Z,93.80
2023-05-22T12:12:07.900Z,93.37
2023-05-22T12:12:46.894Z,92.89
2023-05-22T12:14:07.840Z,93.66
2023-05-22T12:15:07.845Z,93.71
2023-05-22T12:16:07.832Z,94.34
2023-05-22T12:16:46.853Z,93.76
2023-05-22T12:18:07.759Z,93.90
2023-05-22T12:19:07.779Z,93.23
2023-05-22T12:20:07.715Z,92.74
2023-05-22T12:20:46.681Z,92.79
2023-05-22T12:22:07.625Z,92.89
2023-05-22T12:23:07.616Z,93.66
2023-05-22T12:24:07.576Z,93.37
2023-05-22T12:24:46.537Z,93.47
2023-05-22T12:26:07.546Z,94.43
2023-05-22T12:27:07.517Z,93.23
2023-05-22T12:28:07.515Z,94.34
2023-05-22T12:28:46.476Z,93.47
2023-05-22T12:30:07.448Z,93.85
2023-05-22T12:31:07.415Z,93.85
2023-05-22T12:32:07.392Z,93.61
2023-05-22T12:32:46.371Z,93.32
2023-05-22T12:34:07.345Z,92.93
2023-05-22T12:35:07.305Z,92.50
2023-05-22T12:36:07.262Z,92.60
2023-05-22T12:36:46.240Z,93.85
2023-05-22T12:38:07.229Z,92.93
2023-05-22T12:39:07.181Z,92.83
2023-05-22T12:40:07.161Z,92.30
2023-05-22T12:40:46.111Z,92.01
2023-05-22T12:42:07.089Z,92.49
2023-05-22T12:43:07.073Z,92.88
2023-05-22T12:44:07.056Z,91.72
2023-05-22T12:44:46.050Z,91.53
2023-05-22T12:46:07.052Z,92.40
2023-05-22T12:47:06.988Z,92.40
2023-05-22T12:48:06.986Z,91.24
2023-05-22T12:48:45.908Z,91.24
2023-05-22T12:50:06.906Z,91.28
2023-05-22T12:51:06.882Z,90.99
2023-05-22T12:52:06.839Z,91.14